createdAt,value
2023-04-30T00:01:01.277Z,101878.16
2023-04-30T00:03:28.222Z,101882.50
2023-04-30T00:05:55.052Z,101876.56
2023-04-30T00:08:22.071Z,101884.41
2023-04-30T00:10:48.835Z,101891.69
2023-04-30T00:13:15.687Z,101889.72
2023-04-30T00:15:42.687Z,101881.31
2023-04-30T00:18:09.644Z,101874.22
2023-04-30T00:20:36.519Z,101879.03
2023-04-30T00:23:03.483Z,101883.13
2023-04-30T00:25:30.142Z,101881.91
2023-04-30T00:27:57.037Z,101881.97
2023-04-30T00:30:23.846Z,101878.50
2023-04-30T00:32:50.813Z,101877.69
2023-04-30T00:35:17.803Z,101877.06
2023-04-30T00:37:46.591Z,101880.44
2023-04-30T00:40:13.416Z,101870.91
2023-04-30T00:42:40.203Z,101873.31
2023-04-30T00:45:07.914Z,101866.13
2023-04-30T00:47:35.521Z,101868.84
2023-04-30T00:50:02.409Z,101865.88
2023-04-30T00:52:29.176Z,101867.66
2023-04-30T00:54:56.805Z,101867.34
2023-04-30T00:57:23.635Z,101871.19
2023-04-30T00:59:50.906Z,101869.81
2023-04-30T01:02:18.681Z,101868.47
2023-04-30T01:04:45.662Z,101866.22
2023-04-30T01:07:12.574Z,101873.44
2023-04-30T01:09:39.271Z,101867.88
2023-04-30T01:12:09.966Z,101861.78
2023-04-30T01:15:02.247Z,101863.44
2023-04-30T01:17:39.694Z,101868.16
2023-04-30T01:20:08.120Z,101865.66
2023-04-30T01:23:11.022Z,101861.09
2023-04-30T01:25:40.713Z,101858.00
2023-04-30T01:28:17.093Z,101868.13
2023-04-30T01:30:47.599Z,101865.34
2023-04-30T01:33:14.324Z,101862.00
2023-04-30T01:35:41.194Z,101870.78
2023-04-30T01:38:21.112Z,101879.16
2023-04-30T01:40:54.862Z,101873.97
2023-04-30T01:43:46.323Z,101877.44
2023-04-30T01:46:28.395Z,101878.03
2023-04-30T01:49:07.784Z,101882.19
2023-04-30T01:51:47.060Z,101871.06
2023-04-30T01:54:33.181Z,101868.72
2023-04-30T01:57:13.769Z,101865.34
2023-04-30T01:59:41.261Z,101869.53
2023-04-30T02:02:08.210Z,101867.47
2023-04-30T02:04:34.956Z,101866.88
2023-04-30T02:07:03.701Z,101870.19
2023-04-30T02:09:31.465Z,101870.00
2023-04-30T02:11:58.210Z,101876.53
2023-04-30T02:14:26.023Z,101867.88
2023-04-30T02:16:53.307Z,101872.56
2023-04-30T02:19:20.098Z,101872.66
2023-04-30T02:21:46.913Z,101881.50
2023-04-30T02:24:13.646Z,101870.06
2023-04-30T02:26:40.585Z,101873.66
2023-04-30T02:29:07.430Z,101873.00
2023-04-30T02:31:34.260Z,101862.06
2023-04-30T02:34:01.052Z,101869.13
2023-04-30T02:36:27.760Z,101872.94
2023-04-30T02:38:54.397Z,101871.88
2023-04-30T02:41:21.805Z,101862.22
2023-04-30T02:43:48.696Z,101862.81
2023-04-30T02:46:15.563Z,101864.81
2023-04-30T02:48:42.543Z,101869.94
2023-04-30T02:51:09.872Z,101871.28
2023-04-30T02:53:36.613Z,101866.66
2023-04-30T02:56:03.475Z,101866.75
2023-04-30T02:58:30.292Z,101865.16
2023-04-30T03:00:57.459Z,101862.44
2023-04-30T03:03:24.186Z,101868.88
2023-04-30T03:05:51.291Z,101860.63
2023-04-30T03:08:17.969Z,101866.75
2023-04-30T03:10:44.789Z,101867.56
2023-04-30T03:13:11.474Z,101866.03
2023-04-30T03:15:38.537Z,101866.84
2023-04-30T03:18:06.781Z,101878.66
2023-04-30T03:20:33.455Z,101867.78
2023-04-30T03:23:00.233Z,101870.09
2023-04-30T03:25:26.963Z,101864.94
2023-04-30T03:27:53.964Z,101859.00
2023-04-30T03:30:21.479Z,101862.84
2023-04-30T03:32:48.462Z,101860.34
2023-04-30T03:35:16.456Z,101863.06
2023-04-30T03:37:43.272Z,101860.34
2023-04-30T03:40:11.628Z,101865.56
2023-04-30T03:42:38.446Z,101855.50
2023-04-30T03:45:05.612Z,101858.63
2023-04-30T03:47:33.820Z,101863.94
2023-04-30T03:50:00.610Z,101861.13
2023-04-30T03:52:27.558Z,101855.50
2023-04-30T03:54:54.296Z,101863.31
2023-04-30T03:57:21.732Z,101865.97
2023-04-30T03:59:49.003Z,101844.94
2023-04-30T04:02:16.380Z,101851.13
2023-04-30T04:04:43.290Z,101858.50
2023-04-30T04:07:11.583Z,101860.13
2023-04-30T04:09:39.176Z,101866.47
2023-04-30T04:12:06.190Z,101867.75
2023-04-30T04:14:33.083Z,101867.63
2023-04-30T04:17:00.683Z,101864.91
2023-04-30T04:19:27.987Z,101863.00
2023-04-30T04:21:57.611Z,101870.28
2023-04-30T04:24:25.698Z,101868.69
2023-04-30T04:26:53.493Z,101865.47
2023-04-30T04:29:20.459Z,101867.47
2023-04-30T04:31:49.297Z,101861.03
2023-04-30T04:34:16.438Z,101869.88
2023-04-30T04:36:43.401Z,101877.63
2023-04-30T04:39:10.105Z,101883.88
2023-04-30T04:41:37.113Z,101879.97
2023-04-30T04:44:04.620Z,101884.28
2023-04-30T04:46:32.302Z,101883.25
2023-04-30T04:49:00.077Z,101887.88
2023-04-30T04:51:27.025Z,101890.09
2023-04-30T04:53:54.736Z,101886.94
2023-04-30T04:56:21.528Z,101893.97
2023-04-30T04:58:48.419Z,101897.16
2023-04-30T05:01:15.483Z,101896.97
2023-04-30T05:03:42.376Z,101897.94
2023-04-30T05:06:09.173Z,101899.69
2023-04-30T05:08:36.362Z,101901.09
2023-04-30T05:11:03.168Z,101904.31
2023-04-30T05:13:30.386Z,101909.25
2023-04-30T05:15:57.104Z,101894.84
2023-04-30T05:18:23.861Z,101899.69
2023-04-30T05:20:50.656Z,101905.13
2023-04-30T05:23:17.517Z,101898.09
2023-04-30T05:25:44.256Z,101891.25
2023-04-30T05:28:11.530Z,101894.69
2023-04-30T05:30:38.419Z,101897.31
2023-04-30T05:33:05.683Z,101909.06
2023-04-30T05:35:36.318Z,101910.59
2023-04-30T05:38:03.793Z,101906.56
2023-04-30T05:40:31.035Z,101911.09
2023-04-30T05:42:57.953Z,101903.34
2023-04-30T05:45:25.071Z,101900.63
2023-04-30T05:47:52.022Z,101904.69
2023-04-30T05:50:18.943Z,101896.91
2023-04-30T05:52:46.095Z,101901.50
2023-04-30T05:55:12.961Z,101903.09
2023-04-30T05:57:39.717Z,101906.00
2023-04-30T06:00:09.982Z,101901.84
2023-04-30T06:02:40.255Z,101895.22
2023-04-30T06:05:08.248Z,101897.50
2023-04-30T06:07:35.995Z,101891.63
2023-04-30T06:10:03.772Z,101888.16
2023-04-30T06:12:31.507Z,101892.03
2023-04-30T06:14:58.570Z,101883.25
2023-04-30T06:17:25.314Z,101888.66
2023-04-30T06:19:52.950Z,101887.03
2023-04-30T06:22:19.948Z,101884.53
2023-04-30T06:24:46.946Z,101883.47
2023-04-30T06:27:13.736Z,101880.59
2023-04-30T06:29:40.701Z,101884.44
2023-04-30T06:32:08.526Z,101886.88
2023-04-30T06:34:35.913Z,101888.38
2023-04-30T06:37:02.813Z,101889.91
2023-04-30T06:39:29.923Z,101895.22
2023-04-30T06:42:12.756Z,101885.66
2023-04-30T06:44:40.028Z,101891.44
2023-04-30T06:47:07.427Z,101896.03
2023-04-30T06:49:34.912Z,101890.31
2023-04-30T06:52:02.048Z,101890.91
2023-04-30T06:54:29.165Z,101897.44
2023-04-30T06:56:55.862Z,101890.19
2023-04-30T06:59:22.772Z,101897.72
2023-04-30T07:01:49.512Z,101905.50
2023-04-30T07:04:16.503Z,101899.56
2023-04-30T07:06:43.381Z,101892.78
2023-04-30T07:09:11.048Z,101894.44
2023-04-30T07:11:37.925Z,101893.88
2023-04-30T07:14:04.627Z,101892.09
2023-04-30T07:16:38.358Z,101897.88
2023-04-30T07:19:05.133Z,101890.72
2023-04-30T07:21:32.826Z,101888.97
2023-04-30T07:23:59.686Z,101895.47
2023-04-30T07:26:26.602Z,101891.81
2023-04-30T07:28:54.048Z,101892.44
2023-04-30T07:31:21.161Z,101887.44
2023-04-30T07:33:49.042Z,101895.69
2023-04-30T07:36:15.858Z,101892.59
2023-04-30T07:38:43.109Z,101899.28
2023-04-30T07:41:11.632Z,101892.00
2023-04-30T07:43:38.957Z,101880.69
2023-04-30T07:46:05.755Z,101878.56
2023-04-30T07:48:32.783Z,101883.19
2023-04-30T07:50:59.477Z,101887.63
2023-04-30T07:53:26.544Z,101890.03
2023-04-30T07:55:53.698Z,101892.41
2023-04-30T07:58:20.941Z,101880.69
2023-04-30T08:00:47.890Z,101887.19
2023-04-30T08:03:14.789Z,101891.16
2023-04-30T08:05:41.693Z,101871.31
2023-04-30T08:08:09.361Z,101887.56
2023-04-30T08:10:37.478Z,101876.84
2023-04-30T08:13:05.152Z,101887.22
2023-04-30T08:15:34.057Z,101891.22
2023-04-30T08:18:00.961Z,101871.06
2023-04-30T08:20:27.901Z,101871.41
2023-04-30T08:22:54.780Z,101874.72
2023-04-30T08:25:21.450Z,101874.97
2023-04-30T08:27:49.491Z,101876.56
2023-04-30T08:30:17.371Z,101872.44
2023-04-30T08:32:44.650Z,101868.84
2023-04-30T08:35:11.436Z,101862.53
2023-04-30T08:37:39.702Z,101878.78
2023-04-30T08:40:09.884Z,101875.28
2023-04-30T08:42:37.969Z,101876.50
2023-04-30T08:45:05.113Z,101874.91
2023-04-30T08:47:32.202Z,101876.13
2023-04-30T08:49:59.122Z,101880.19
2023-04-30T08:52:27.035Z,101883.19
2023-04-30T08:54:54.372Z,101874.75
2023-04-30T08:57:21.463Z,101878.59
2023-04-30T08:59:48.396Z,101866.44
2023-04-30T09:02:33.169Z,101874.91
2023-04-30T09:08:01.232Z,101853.59
2023-04-30T09:10:32.696Z,101862.84
2023-04-30T09:13:01.702Z,101856.53
2023-04-30T09:15:29.280Z,101857.69
2023-04-30T09:18:08.486Z,101861.31
2023-04-30T09:20:35.978Z,101872.91
2023-04-30T09:23:10.644Z,101848.44
2023-04-30T09:25:41.794Z,101851.38
2023-04-30T09:28:13.192Z,101854.06
2023-04-30T09:30:44.277Z,101852.84
2023-04-30T09:33:12.141Z,101851.38
2023-04-30T09:35:40.154Z,101856.47
2023-04-30T09:38:06.960Z,101860.41
2023-04-30T09:40:41.453Z,101853.13
2023-04-30T09:43:09.123Z,101859.13
2023-04-30T09:45:53.057Z,101862.97
2023-04-30T09:48:23.934Z,101848.78
2023-04-30T09:50:51.695Z,101839.59
2023-04-30T09:53:19.498Z,101842.78
2023-04-30T09:55:48.206Z,101842.38
2023-04-30T10:01:18.291Z,101838.63
2023-04-30T10:03:46.157Z,101835.78
2023-04-30T10:06:15.647Z,101841.34
2023-04-30T10:08:44.103Z,101832.28
2023-04-30T10:11:16.820Z,101828.03
2023-04-30T10:13:47.347Z,101828.56
2023-04-30T10:16:44.731Z,101835.50
2023-04-30T10:19:24.471Z,101826.81
2023-04-30T10:21:51.896Z,101817.13
2023-04-30T10:24:22.851Z,101823.41
2023-04-30T10:26:50.263Z,101804.72
2023-04-30T10:29:18.174Z,101818.72
2023-04-30T10:31:50.354Z,101815.38
2023-04-30T10:34:29.400Z,101818.94
2023-04-30T10:37:28.720Z,101824.59
2023-04-30T10:39:55.995Z,101820.91
2023-04-30T10:42:23.378Z,101816.50
2023-04-30T10:44:50.599Z,101815.59
2023-04-30T10:47:19.607Z,101814.47
2023-04-30T10:49:49.816Z,101795.16
2023-04-30T10:52:26.798Z,101807.56
2023-04-30T10:54:53.663Z,101800.47
2023-04-30T10:57:22.482Z,101789.66
2023-04-30T11:00:08.159Z,101795.31
2023-04-30T11:02:47.394Z,101788.75
2023-04-30T11:05:18.948Z,101785.53
2023-04-30T11:07:56.473Z,101780.78
2023-04-30T11:10:25.516Z,101768.41
2023-04-30T11:12:54.286Z,101765.78
2023-04-30T11:15:25.443Z,101771.28
2023-04-30T11:17:58.939Z,101761.19
2023-04-30T11:20:26.864Z,101762.25
2023-04-30T11:23:21.778Z,101745.81
2023-04-30T11:25:57.789Z,101746.22
2023-04-30T11:28:26.780Z,101751.72
2023-04-30T11:30:58.265Z,101750.34
2023-04-30T11:33:26.942Z,101733.69
2023-04-30T11:35:55.785Z,101727.25
2023-04-30T11:38:27.168Z,101735.28
2023-04-30T11:40:57.201Z,101724.09
2023-04-30T11:43:26.116Z,101722.69
2023-04-30T11:46:12.114Z,101725.34
2023-04-30T11:48:40.607Z,101728.78
2023-04-30T11:51:20.673Z,101716.38
2023-04-30T11:53:49.571Z,101721.44
2023-04-30T11:56:24.391Z,101723.31
2023-04-30T11:58:57.215Z,101709.84
2023-04-30T12:01:27.987Z,101714.41
2023-04-30T12:03:56.428Z,101693.50
2023-04-30T12:06:28.359Z,101697.69
2023-04-30T12:09:01.868Z,101705.44
2023-04-30T12:11:30.517Z,101696.28
2023-04-30T12:13:58.531Z,101692.72
2023-04-30T12:16:26.308Z,101679.03
2023-04-30T12:18:53.601Z,101673.03
2023-04-30T12:21:22.836Z,101674.94
2023-04-30T12:23:49.971Z,101667.44
2023-04-30T12:26:17.980Z,101674.81
2023-04-30T12:28:47.516Z,101664.19
2023-04-30T12:31:14.593Z,101675.63
2023-04-30T12:33:41.616Z,101670.44
2023-04-30T12:36:11.057Z,101666.25
2023-04-30T12:38:37.920Z,101659.84
2023-04-30T12:41:05.517Z,101661.22
2023-04-30T12:43:33.451Z,101667.78
2023-04-30T12:46:01.177Z,101656.91
2023-04-30T12:48:29.339Z,101654.22
2023-04-30T12:51:05.156Z,101659.03
2023-04-30T12:53:32.193Z,101646.56
2023-04-30T12:56:15.973Z,101644.22
2023-04-30T12:58:51.295Z,101641.00
2023-04-30T13:07:40.956Z,101637.63
2023-04-30T13:10:08.190Z,101639.41
2023-04-30T13:12:34.994Z,101640.03
2023-04-30T13:15:03.395Z,101636.22
2023-04-30T13:17:30.422Z,101637.31
2023-04-30T13:19:57.418Z,101637.19
2023-04-30T13:22:29.479Z,101624.19
2023-04-30T13:24:56.398Z,101630.75
2023-04-30T13:27:24.705Z,101616.63
2023-04-30T13:29:51.504Z,101623.28
2023-04-30T13:32:20.520Z,101603.09
2023-04-30T13:34:47.629Z,101614.00
2023-04-30T13:37:14.400Z,101608.75
2023-04-30T13:39:41.773Z,101614.25
2023-04-30T13:42:08.596Z,101601.72
2023-04-30T13:44:36.765Z,101602.34
2023-04-30T13:47:03.750Z,101612.38
2023-04-30T13:49:30.910Z,101605.72
2023-04-30T13:51:57.595Z,101600.78
2023-04-30T13:54:24.650Z,101605.25
2023-04-30T13:56:51.674Z,101594.09
2023-04-30T13:59:19.094Z,101593.44
2023-04-30T14:01:46.302Z,101594.09
2023-04-30T14:04:13.793Z,101592.34
2023-04-30T14:06:40.988Z,101587.44
2023-04-30T14:09:08.397Z,101591.41
2023-04-30T14:11:35.126Z,101582.63
2023-04-30T14:14:02.251Z,101586.56
2023-04-30T14:16:29.391Z,101567.16
2023-04-30T14:18:56.198Z,101572.13
2023-04-30T14:21:23.104Z,101574.00
2023-04-30T14:23:50.265Z,101583.44
2023-04-30T14:26:18.520Z,101572.28
2023-04-30T14:28:45.398Z,101578.88
2023-04-30T14:31:12.180Z,101569.81
2023-04-30T14:33:39.241Z,101567.41
2023-04-30T14:36:07.195Z,101562.38
2023-04-30T14:38:34.266Z,101564.91
2023-04-30T14:41:01.292Z,101555.00
2023-04-30T14:43:28.243Z,101557.66
2023-04-30T14:45:55.185Z,101563.50
2023-04-30T14:48:22.209Z,101544.81
2023-04-30T14:50:50.044Z,101558.81
2023-04-30T14:53:16.935Z,101544.50
2023-04-30T14:55:44.178Z,101551.63
2023-04-30T14:58:11.196Z,101544.00
2023-04-30T15:00:38.045Z,101538.16
2023-04-30T15:03:05.363Z,101547.06
2023-04-30T15:05:32.511Z,101530.50
2023-04-30T15:07:59.356Z,101534.00
2023-04-30T15:10:26.169Z,101523.09
2023-04-30T15:12:53.897Z,101528.59
2023-04-30T15:15:22.707Z,101536.06
2023-04-30T15:17:49.598Z,101535.66
2023-04-30T15:20:16.447Z,101526.47
2023-04-30T15:22:45.300Z,101523.59
2023-04-30T15:25:15.105Z,101527.88
2023-04-30T15:27:42.086Z,101510.50
2023-04-30T15:30:09.838Z,101523.44
2023-04-30T15:32:37.022Z,101508.28
2023-04-30T15:35:03.994Z,101515.22
2023-04-30T15:37:30.928Z,101514.84
2023-04-30T15:39:57.869Z,101506.50
2023-04-30T15:42:24.802Z,101511.13
2023-04-30T15:44:52.403Z,101498.13
2023-04-30T15:47:20.256Z,101505.47
2023-04-30T15:49:48.748Z,101500.94
2023-04-30T15:52:15.657Z,101500.72
2023-04-30T15:54:42.530Z,101505.34
2023-04-30T15:57:09.196Z,101497.72
2023-04-30T15:59:39.163Z,101499.72
2023-04-30T16:02:08.566Z,101502.19
2023-04-30T16:04:35.740Z,101499.38
2023-04-30T16:07:04.796Z,101480.63
2023-04-30T16:09:32.304Z,101487.16
2023-04-30T16:11:59.136Z,101483.69
2023-04-30T16:14:25.884Z,101479.47
2023-04-30T16:16:52.846Z,101475.19
2023-04-30T16:19:47.530Z,101475.56
2023-04-30T16:22:17.671Z,101471.09
2023-04-30T16:24:44.672Z,101472.22
2023-04-30T16:27:11.670Z,101456.06
2023-04-30T16:29:39.785Z,101465.72
2023-04-30T16:32:06.969Z,101471.53
2023-04-30T16:34:34.000Z,101455.56
2023-04-30T16:37:00.948Z,101461.41
2023-04-30T16:39:27.704Z,101455.03
2023-04-30T16:41:54.758Z,101457.25
2023-04-30T16:44:22.601Z,101449.69
2023-04-30T16:46:49.623Z,101458.53
2023-04-30T16:49:17.053Z,101446.75
2023-04-30T16:51:44.030Z,101448.09
2023-04-30T16:54:10.769Z,101447.28
2023-04-30T16:56:37.763Z,101454.09
2023-04-30T16:59:04.882Z,101448.09
2023-04-30T17:01:32.316Z,101462.00
2023-04-30T17:03:59.184Z,101460.44
2023-04-30T17:06:26.470Z,101448.47
2023-04-30T17:08:54.313Z,101444.34
2023-04-30T17:11:22.414Z,101439.28
2023-04-30T17:13:49.410Z,101442.97
2023-04-30T17:16:16.643Z,101439.66
2023-04-30T17:18:43.402Z,101434.84
2023-04-30T17:21:10.207Z,101436.19
2023-04-30T17:23:37.047Z,101433.56
2023-04-30T17:26:04.231Z,101418.25
2023-04-30T17:28:32.830Z,101423.13
2023-04-30T17:31:03.951Z,101426.44
2023-04-30T17:33:30.988Z,101424.63
2023-04-30T17:35:58.928Z,101421.53
2023-04-30T17:38:26.460Z,101418.69
2023-04-30T17:40:54.076Z,101423.88
2023-04-30T17:43:20.969Z,101410.53
2023-04-30T17:45:47.859Z,101414.56
2023-04-30T17:51:23.880Z,101425.72
2023-04-30T17:53:50.777Z,101410.72
2023-04-30T17:56:17.998Z,101422.69
2023-04-30T17:58:45.935Z,101409.88
2023-04-30T18:01:13.790Z,101424.38
2023-04-30T18:03:40.919Z,101420.31
2023-04-30T18:06:07.743Z,101409.88
2023-04-30T18:08:34.620Z,101421.41
2023-04-30T18:11:03.501Z,101422.94
2023-04-30T18:13:31.165Z,101420.28
2023-04-30T18:15:57.920Z,101412.34
2023-04-30T18:18:24.887Z,101403.66
2023-04-30T18:20:51.965Z,101413.59
2023-04-30T18:23:19.049Z,101416.00
2023-04-30T18:25:46.317Z,101410.13
2023-04-30T18:28:13.345Z,101404.22
2023-04-30T18:30:40.803Z,101409.34
2023-04-30T18:33:08.927Z,101412.94
2023-04-30T18:35:36.487Z,101406.84
2023-04-30T18:38:03.460Z,101404.91
2023-04-30T18:40:31.407Z,101409.84
2023-04-30T18:42:59.910Z,101408.72
2023-04-30T18:45:26.949Z,101411.88
2023-04-30T18:47:59.152Z,101409.34
2023-04-30T18:50:29.772Z,101413.00
2023-04-30T18:52:59.651Z,101386.09
2023-04-30T18:55:26.634Z,101397.88
2023-04-30T18:57:58.536Z,101389.25
2023-04-30T19:00:27.382Z,101409.59
2023-04-30T19:02:54.616Z,101408.44
2023-04-30T19:05:21.553Z,101404.09
2023-04-30T19:07:48.498Z,101405.41
2023-04-30T19:10:15.683Z,101393.53
2023-04-30T19:12:44.369Z,101399.03
2023-04-30T19:15:15.111Z,101392.31
2023-04-30T19:17:42.870Z,101404.84
2023-04-30T19:20:10.585Z,101404.47
2023-04-30T19:22:38.124Z,101412.88
2023-04-30T19:25:08.811Z,101414.47
2023-04-30T19:27:36.037Z,101409.19
2023-04-30T19:30:03.137Z,101414.13
2023-04-30T19:32:30.162Z,101420.25
2023-04-30T19:34:59.011Z,101415.91
2023-04-30T19:37:35.974Z,101401.91
2023-04-30T19:42:55.327Z,101422.56
2023-04-30T19:45:22.404Z,101426.56
2023-04-30T19:48:04.205Z,101417.25
2023-04-30T19:50:43.170Z,101410.56
2023-04-30T19:53:16.356Z,101410.38
2023-04-30T19:55:44.281Z,101429.59
2023-04-30T19:58:11.251Z,101415.22
2023-04-30T20:00:41.471Z,101434.63
2023-04-30T20:03:09.219Z,101433.09
2023-04-30T20:05:36.408Z,101429.97
2023-04-30T20:08:04.129Z,101434.09
2023-04-30T20:10:32.015Z,101427.63
2023-04-30T20:12:58.997Z,101430.19
2023-04-30T20:15:26.457Z,101424.91
2023-04-30T20:17:53.712Z,101432.25
2023-04-30T20:20:23.945Z,101407.81
2023-04-30T20:22:53.852Z,101422.44
2023-04-30T20:25:22.387Z,101422.78
2023-04-30T20:27:49.676Z,101429.31
2023-04-30T20:30:16.456Z,101425.88
2023-04-30T20:32:43.661Z,101422.34
2023-04-30T20:35:10.484Z,101426.78
2023-04-30T20:37:37.900Z,101420.75
2023-04-30T20:40:08.364Z,101426.69
2023-04-30T20:42:35.971Z,101416.75
2023-04-30T20:45:05.470Z,101419.78
2023-04-30T20:47:32.759Z,101419.56
2023-04-30T20:49:59.504Z,101412.28
2023-04-30T20:52:33.918Z,101422.84
2023-04-30T20:55:07.833Z,101413.94
2023-04-30T20:57:34.788Z,101420.13
2023-04-30T21:00:01.676Z,101414.34
2023-04-30T21:02:28.580Z,101416.88
2023-04-30T21:05:03.092Z,101408.06
2023-04-30T21:07:32.453Z,101421.81
2023-04-30T21:09:59.264Z,101413.81
2023-04-30T21:12:27.189Z,101409.78
2023-04-30T21:14:58.376Z,101407.88
2023-04-30T21:17:25.548Z,101397.41
2023-04-30T21:19:52.786Z,101408.63
2023-04-30T21:22:19.785Z,101404.88
2023-04-30T21:24:50.633Z,101403.19
2023-04-30T21:27:17.453Z,101407.16
2023-04-30T21:29:44.303Z,101400.78
2023-04-30T21:32:23.026Z,101398.22
2023-04-30T21:34:50.127Z,101400.38
2023-04-30T21:37:20.279Z,101396.22
2023-04-30T21:39:47.400Z,101389.50
2023-04-30T21:42:14.325Z,101401.34
2023-04-30T21:44:41.199Z,101398.13
2023-04-30T21:47:10.928Z,101391.44
2023-04-30T21:49:37.795Z,101384.94
2023-04-30T21:52:08.075Z,101376.38
2023-04-30T21:54:37.783Z,101385.16
2023-04-30T21:57:04.660Z,101372.59
2023-04-30T21:59:34.068Z,101368.44
2023-04-30T22:02:13.087Z,101375.09
2023-04-30T22:04:49.367Z,101369.50
2023-04-30T22:07:16.197Z,101369.91
2023-04-30T22:09:44.465Z,101360.41
2023-04-30T22:12:11.504Z,101368.00
2023-04-30T22:14:38.507Z,101374.06
2023-04-30T22:17:05.377Z,101361.69
2023-04-30T22:19:32.257Z,101350.09
2023-04-30T22:21:59.006Z,101348.59
2023-04-30T22:24:25.629Z,101353.06
2023-04-30T22:26:52.332Z,101356.56
2023-04-30T22:29:19.766Z,101353.84
2023-04-30T22:31:46.808Z,101356.75
2023-04-30T22:34:15.569Z,101353.13
2023-04-30T22:36:42.435Z,101352.00
2023-04-30T22:39:10.107Z,101349.84
2023-04-30T22:41:36.988Z,101355.34
2023-04-30T22:44:05.842Z,101354.09
2023-04-30T22:46:36.623Z,101346.03
2023-04-30T22:49:03.724Z,101357.03
2023-04-30T22:51:31.800Z,101347.22
2023-04-30T22:53:58.675Z,101351.00
2023-04-30T22:56:25.491Z,101350.41
2023-04-30T22:58:52.328Z,101340.53
2023-04-30T23:01:20.115Z,101342.09
2023-04-30T23:03:46.887Z,101343.34
2023-04-30T23:06:14.382Z,101335.63
2023-04-30T23:08:41.151Z,101331.75
2023-04-30T23:11:07.913Z,101333.75
2023-04-30T23:13:34.577Z,101338.44
2023-04-30T23:16:02.162Z,101335.75
2023-04-30T23:18:28.916Z,101333.13
2023-04-30T23:20:58.943Z,101328.66
2023-04-30T23:23:26.834Z,101322.78
2023-04-30T23:25:54.726Z,101333.63
2023-04-30T23:28:22.128Z,101321.41
2023-04-30T23:30:55.357Z,101319.03
2023-04-30T23:33:22.804Z,101321.75
2023-04-30T23:35:49.606Z,101311.81
2023-04-30T23:38:16.464Z,101312.16
2023-04-30T23:40:43.916Z,101313.41
2023-04-30T23:43:11.841Z,101309.19
2023-04-30T23:45:42.497Z,101296.84
2023-04-30T23:48:10.403Z,101304.50
2023-04-30T23:50:40.131Z,101304.38
2023-04-30T23:53:07.741Z,101297.59
2023-04-30T23:55:35.021Z,101294.72
2023-04-30T23:58:01.818Z,101296.97
